createdAt,value
2022-07-31T00:03:19.127Z,15.76
2022-07-31T00:08:23.624Z,15.80
2022-07-31T00:13:57.798Z,15.72
2022-07-31T00:18:49.628Z,15.39
2022-07-31T00:23:54.387Z,15.63
2022-07-31T00:28:57.470Z,15.70
2022-07-31T00:34:00.511Z,15.42
2022-07-31T00:39:05.213Z,15.45
2022-07-31T00:44:12.126Z,15.39
2022-07-31T00:49:15.582Z,15.54
2022-07-31T00:54:22.519Z,15.46
2022-07-31T00:59:26.337Z,15.50
2022-07-31T01:04:31.106Z,15.61
2022-07-31T01:09:37.396Z,15.72
2022-07-31T01:14:44.853Z,15.69
2022-07-31T01:19:49.888Z,15.68
2022-07-31T01:25:05.266Z,15.60
2022-07-31T01:30:30.615Z,15.50
2022-07-31T01:35:42.019Z,15.43
2022-07-31T01:40:48.564Z,15.34
2022-07-31T01:45:57.419Z,15.29
2022-07-31T01:51:04.115Z,15.41
2022-07-31T01:56:08.691Z,15.41
2022-07-31T02:01:16.574Z,15.40
2022-07-31T02:06:21.552Z,15.50
2022-07-31T02:11:25.020Z,15.40
2022-07-31T02:16:30.600Z,15.27
2022-07-31T02:21:43.084Z,15.41
2022-07-31T02:26:49.000Z,15.47
2022-07-31T02:32:02.801Z,15.33
2022-07-31T02:37:16.489Z,15.25
2022-07-31T02:42:20.504Z,15.16
2022-07-31T02:47:25.286Z,15.20
2022-07-31T02:52:30.016Z,15.24
2022-07-31T02:57:33.157Z,15.30
2022-07-31T03:02:37.931Z,15.22
2022-07-31T03:07:41.789Z,15.20
2022-07-31T03:12:49.134Z,15.21
2022-07-31T03:17:54.997Z,15.13
2022-07-31T03:23:08.528Z,15.18
2022-07-31T03:28:24.025Z,15.03
2022-07-31T03:33:28.574Z,15.02
2022-07-31T03:38:39.728Z,15.08
2022-07-31T03:44:02.364Z,15.08
2022-07-31T03:49:09.580Z,15.22
2022-07-31T03:54:13.010Z,15.42
2022-07-31T03:59:21.580Z,15.45
2022-07-31T04:04:26.377Z,15.44
2022-07-31T04:09:38.695Z,15.58
2022-07-31T04:14:42.857Z,15.76
2022-07-31T04:19:49.620Z,15.78
2022-07-31T04:24:53.389Z,16.75
2022-07-31T04:30:03.017Z,18.07
2022-07-31T04:35:09.575Z,18.93
2022-07-31T04:40:13.331Z,19.12
2022-07-31T04:45:16.403Z,19.72
2022-07-31T04:50:21.079Z,20.02
2022-07-31T04:55:34.706Z,20.66
2022-07-31T05:00:37.814Z,21.08
2022-07-31T05:05:45.374Z,21.55
2022-07-31T05:11:05.962Z,21.40
2022-07-31T05:16:12.632Z,22.03
2022-07-31T05:21:17.968Z,21.91
2022-07-31T05:26:32.305Z,21.69
2022-07-31T05:31:35.432Z,22.33
2022-07-31T05:36:39.962Z,22.48
2022-07-31T05:41:44.584Z,22.83
2022-07-31T05:51:56.483Z,22.02
2022-07-31T05:56:59.971Z,22.31
2022-07-31T06:02:10.951Z,22.97
2022-07-31T06:07:52.108Z,23.03
2022-07-31T06:12:57.398Z,23.13
2022-07-31T06:18:00.693Z,23.46
2022-07-31T06:23:19.832Z,23.57
2022-07-31T06:28:49.297Z,23.82
2022-07-31T06:33:54.396Z,24.02
2022-07-31T06:39:02.691Z,24.50
2022-07-31T06:44:05.792Z,24.73
2022-07-31T06:49:27.286Z,24.27
2022-07-31T06:54:31.746Z,24.41
2022-07-31T06:59:39.951Z,24.59
2022-07-31T07:05:01.530Z,24.67
2022-07-31T07:10:09.060Z,25.47
2022-07-31T07:15:30.769Z,25.18
2022-07-31T07:20:34.016Z,24.97
2022-07-31T07:25:38.788Z,25.27
2022-07-31T07:30:44.513Z,25.64
2022-07-31T07:35:48.796Z,25.64
2022-07-31T07:40:56.379Z,25.63
2022-07-31T07:46:00.098Z,25.12
2022-07-31T07:51:03.106Z,25.63
2022-07-31T07:56:11.969Z,25.00
2022-07-31T08:01:40.638Z,26.00
2022-07-31T08:06:53.240Z,26.38
2022-07-31T08:12:01.398Z,25.66
2022-07-31T08:17:42.839Z,26.76
2022-07-31T08:22:47.559Z,26.87
2022-07-31T08:27:52.005Z,26.92
2022-07-31T08:32:56.984Z,26.02
2022-07-31T08:38:25.950Z,24.10
2022-07-31T08:44:01.370Z,26.25
2022-07-31T08:49:12.927Z,25.57
2022-07-31T08:54:21.394Z,26.68
2022-07-31T08:59:25.861Z,26.35
2022-07-31T09:04:30.191Z,27.53
2022-07-31T09:09:50.792Z,26.46
2022-07-31T09:14:56.433Z,24.82
2022-07-31T09:19:59.469Z,26.59
2022-07-31T09:25:12.057Z,24.95
2022-07-31T09:30:17.158Z,25.58
2022-07-31T09:35:49.008Z,26.90
2022-07-31T09:40:57.024Z,25.77
2022-07-31T09:46:25.392Z,27.22
2022-07-31T09:51:39.522Z,28.11
2022-07-31T09:56:46.838Z,25.03
2022-07-31T10:01:51.387Z,24.98
2022-07-31T10:06:57.761Z,23.74
2022-07-31T10:12:03.232Z,24.57
2022-07-31T10:17:10.957Z,26.61
2022-07-31T10:22:33.452Z,25.07
2022-07-31T10:27:39.362Z,26.61
2022-07-31T10:32:48.324Z,27.15
2022-07-31T10:38:20.604Z,26.95
2022-07-31T10:43:37.163Z,27.67
2022-07-31T10:49:00.742Z,25.76
2022-07-31T10:54:40.869Z,25.40
2022-07-31T11:00:12.009Z,26.43
2022-07-31T11:06:01.651Z,24.49
2022-07-31T11:11:17.615Z,25.59
2022-07-31T11:16:30.358Z,25.42
2022-07-31T11:21:49.085Z,26.59
2022-07-31T11:26:53.056Z,24.13
2022-07-31T11:31:56.534Z,24.83
2022-07-31T11:37:01.883Z,25.73
2022-07-31T11:42:09.600Z,25.28
2022-07-31T11:48:09.969Z,24.90
2022-07-31T11:52:38.662Z,24.42
2022-07-31T11:57:51.299Z,25.04
2022-07-31T12:02:55.769Z,25.65
2022-07-31T12:08:00.485Z,25.93
2022-07-31T12:13:04.703Z,26.78
2022-07-31T12:18:08.045Z,24.90
2022-07-31T12:23:40.652Z,25.96
2022-07-31T12:28:36.192Z,25.96
2022-07-31T12:33:43.530Z,26.55
2022-07-31T12:38:49.063Z,25.95
2022-07-31T12:43:52.825Z,26.09
2022-07-31T12:48:55.991Z,24.82
2022-07-31T12:54:00.421Z,26.09
2022-07-31T12:59:03.531Z,25.50
2022-07-31T13:04:08.013Z,25.92
2022-07-31T13:09:22.923Z,25.31
2022-07-31T13:14:26.422Z,26.47
2022-07-31T13:19:29.579Z,26.82
2022-07-31T13:24:34.009Z,27.69
2022-07-31T13:29:36.993Z,26.72
2022-07-31T13:34:40.001Z,26.02
2022-07-31T13:39:44.384Z,27.05
2022-07-31T13:44:47.389Z,26.83
2022-07-31T13:49:50.494Z,26.50
2022-07-31T13:54:54.919Z,25.73
2022-07-31T13:59:57.927Z,26.85
2022-07-31T14:05:00.945Z,26.84
2022-07-31T14:10:06.301Z,27.74
2022-07-31T14:15:10.169Z,27.62
2022-07-31T14:20:13.885Z,27.62
2022-07-31T14:25:18.305Z,27.36
2022-07-31T14:30:22.073Z,26.71
2022-07-31T14:35:26.051Z,27.37
2022-07-31T14:40:30.939Z,26.47
2022-07-31T14:45:38.266Z,26.34
2022-07-31T14:50:54.564Z,26.32
2022-07-31T14:56:03.612Z,26.64
2022-07-31T15:01:07.210Z,27.19
2022-07-31T15:06:39.953Z,26.50
2022-07-31T15:11:59.251Z,26.47
2022-07-31T15:16:57.781Z,26.01
2022-07-31T15:22:15.900Z,26.43
2022-07-31T15:27:21.965Z,26.06
2022-07-31T15:32:25.226Z,26.59
2022-07-31T15:37:30.272Z,26.40
2022-07-31T15:42:38.117Z,26.16
2022-07-31T15:47:42.329Z,26.06
2022-07-31T15:52:45.416Z,26.72
2022-07-31T15:57:49.843Z,26.03
2022-07-31T16:02:53.060Z,26.47
2022-07-31T16:08:32.081Z,26.62
2022-07-31T16:13:20.375Z,26.68
2022-07-31T16:18:23.503Z,26.64
2022-07-31T16:23:27.990Z,26.89
2022-07-31T16:28:32.373Z,26.20
2022-07-31T16:33:35.371Z,25.94
2022-07-31T16:38:38.353Z,26.24
2022-07-31T16:43:49.556Z,26.54
2022-07-31T16:48:54.773Z,26.55
2022-07-31T16:54:13.153Z,26.52
2022-07-31T16:59:20.583Z,25.99
2022-07-31T17:04:23.601Z,25.65
2022-07-31T17:09:28.572Z,25.64
2022-07-31T17:14:32.967Z,25.05
2022-07-31T17:19:45.904Z,25.18
2022-07-31T17:24:51.728Z,25.22
2022-07-31T17:29:56.237Z,24.69
2022-07-31T17:34:59.256Z,24.97
2022-07-31T17:40:02.297Z,25.14
2022-07-31T17:45:08.036Z,25.28
2022-07-31T17:50:11.775Z,25.14
2022-07-31T17:55:14.789Z,25.11
2022-07-31T18:00:19.630Z,24.97
2022-07-31T18:05:22.657Z,24.80
2022-07-31T18:10:51.847Z,24.66
2022-07-31T18:15:50.327Z,24.49
2022-07-31T18:20:53.284Z,24.39
2022-07-31T18:25:57.053Z,24.39
2022-07-31T18:31:01.843Z,24.26
2022-07-31T18:36:05.485Z,24.20
2022-07-31T18:41:08.473Z,24.04
2022-07-31T18:46:12.841Z,24.01
2022-07-31T18:51:15.928Z,23.94
2022-07-31T18:56:19.169Z,23.82
2022-07-31T19:01:24.617Z,23.75
2022-07-31T19:06:27.838Z,23.74
2022-07-31T19:11:31.370Z,23.60
2022-07-31T19:16:35.789Z,23.54
2022-07-31T19:21:41.301Z,23.17
2022-07-31T19:26:44.972Z,23.34
2022-07-31T19:31:49.516Z,23.23
2022-07-31T19:36:52.543Z,23.16
2022-07-31T19:42:21.341Z,23.10
2022-07-31T19:47:20.253Z,23.12
2022-07-31T19:52:23.730Z,22.89
2022-07-31T19:57:26.729Z,22.82
2022-07-31T20:02:31.121Z,22.58
2022-07-31T20:07:34.315Z,22.58
2022-07-31T20:12:37.440Z,22.44
2022-07-31T20:17:41.911Z,22.23
2022-07-31T20:22:45.162Z,22.08
2022-07-31T20:27:48.196Z,22.14
2022-07-31T20:32:52.954Z,21.87
2022-07-31T20:37:57.441Z,22.06
2022-07-31T20:43:03.302Z,21.95
2022-07-31T20:48:08.346Z,21.60
2022-07-31T20:53:11.443Z,21.89
2022-07-31T20:58:14.520Z,21.75
2022-07-31T21:03:19.341Z,21.78
2022-07-31T21:08:22.446Z,21.73
2022-07-31T21:13:26.638Z,21.89
2022-07-31T21:18:34.711Z,21.94
2022-07-31T21:23:38.336Z,22.01
2022-07-31T21:28:41.701Z,21.81
2022-07-31T21:33:46.862Z,21.62
2022-07-31T21:38:50.240Z,21.70
2022-07-31T21:43:59.210Z,21.77
2022-07-31T21:49:04.395Z,21.80
2022-07-31T21:54:07.568Z,21.71
2022-07-31T21:59:10.553Z,21.61
2022-07-31T22:04:15.062Z,21.44
2022-07-31T22:09:19.039Z,21.39
2022-07-31T22:14:22.403Z,21.45
2022-07-31T22:19:27.361Z,21.38
2022-07-31T22:24:30.828Z,21.50
2022-07-31T22:29:36.438Z,21.41
2022-07-31T22:34:41.089Z,21.28
2022-07-31T22:39:44.427Z,21.23
2022-07-31T22:44:47.917Z,21.30
2022-07-31T22:49:52.504Z,21.15
2022-07-31T22:54:55.498Z,20.97
2022-07-31T22:59:59.028Z,20.99
2022-07-31T23:05:03.492Z,20.92
2022-07-31T23:10:07.377Z,20.72
2022-07-31T23:15:10.428Z,20.50
2022-07-31T23:20:15.322Z,20.66
2022-07-31T23:25:20.761Z,20.68
2022-07-31T23:30:24.321Z,20.69
2022-07-31T23:35:28.707Z,20.53
2022-07-31T23:40:31.912Z,20.48
2022-07-31T23:45:35.979Z,20.39
2022-07-31T23:50:40.365Z,20.53
2022-07-31T23:55:43.490Z,20.36
